Time;durP1;ratioP1;P1;durP2;ratioP2;P2;SDS_P1;SDS_P2;PMS_P1;PMS_P2;Temp;Humidity;BMP_temperature;BMP_pressure;BME280_temperature;BME280_humidity;BME280_pressure;Samples;Min_cycle;Max_cycle;Signal;HPM_P1;HPM_P2
2022/01/29 00:02:05;;;;;;;;;;;;;;;2.40;54.00;97265.72;5043200;28;19931;-62
2022/01/29 00:04:32;;;;;;;;;;;;;;;2.25;55.08;97255.16;5044327;28;19931;-63
2022/01/29 00:06:58;;;;;;;;;;;;;;;2.24;53.44;97257.09;5044609;28;20395;-64
2022/01/29 00:09:25;;;;;;;;;;;;;;;2.38;54.12;97265.22;5056922;28;19924;-60
2022/01/29 00:11:51;;;;;;;;;;;;;;;2.46;53.56;97264.47;5062917;28;19931;-64
2022/01/29 00:14:18;;;;;;;;;;;;;;;2.44;53.52;97263.97;5063958;28;19924;-64
2022/01/29 00:16:44;;;;;;;;;;;;;;;2.27;54.03;97255.66;5064182;28;19924;-65
2022/01/29 00:19:11;;;;;;;;;;;;;;;2.20;55.36;97250.63;5062808;28;19925;-60
2022/01/29 00:21:37;;;;;;;;;;;;;;;2.16;54.82;97262.50;5064263;28;20450;-60
2022/01/29 00:24:04;;;;;;;;;;;;;;;2.12;55.13;97264.25;5064384;28;19925;-63
2022/01/29 00:26:31;;;;;;;;;;;;;;;2.20;54.49;97258.00;5062788;28;19924;-63
2022/01/29 00:28:58;;;;;;;;;;;;;;;2.18;54.61;97263.00;5064341;28;19931;-63
2022/01/29 00:31:25;;;;;;;;;;;;;;;2.36;53.86;97264.72;5064119;28;19925;-63
2022/01/29 00:33:51;;;;;;;;;;;;;;;2.00;56.77;97266.72;5063827;28;20302;-60
2022/01/29 00:36:18;;;;;;;;;;;;;;;2.06;55.23;97260.00;5064022;28;19947;-63
2022/01/29 00:38:44;;;;;;;;;;;;;;;1.65;57.46;97270.28;5064197;28;20306;-60
2022/01/29 00:41:11;;;;;;;;;;;;;;;1.56;58.03;97271.00;5064300;28;20311;-63
2022/01/29 00:43:37;;;;;;;;;;;;;;;1.65;56.87;97273.00;5064656;28;19924;-59
2022/01/29 00:46:04;;;;;;;;;;;;;;;1.67;56.47;97268.06;5062655;28;19964;-63
2022/01/29 00:48:30;;;;;;;;;;;;;;;1.78;56.62;97280.34;5064015;28;19924;-61
2022/01/29 00:51:00;;;;;;;;;;;;;;;1.83;56.83;97272.06;5063845;28;19924;-63
2022/01/29 00:53:27;;;;;;;;;;;;;;;1.81;56.44;97269.63;5064017;28;19928;-59
2022/01/29 00:55:53;;;;;;;;;;;;;;;1.80;56.80;97272.66;5063774;28;19931;-63
2022/01/29 00:58:20;;;;;;;;;;;;;;;1.52;58.06;97278.19;5064105;28;19947;-61
2022/01/29 01:00:46;;;;;;;;;;;;;;;1.49;58.19;97267.91;5064150;28;19928;-64
2022/01/29 01:03:13;;;;;;;;;;;;;;;1.69;56.75;97263.09;5062423;28;19928;-64
2022/01/29 01:05:40;;;;;;;;;;;;;;;1.70;57.08;97251.06;5063516;28;19924;-63
2022/01/29 01:08:08;;;;;;;;;;;;;;;1.48;58.76;97260.84;5063463;28;19928;-60
2022/01/29 01:10:34;;;;;;;;;;;;;;;1.49;59.21;97262.44;5062265;28;19931;-62
2022/01/29 01:13:01;;;;;;;;;;;;;;;1.38;59.13;97266.50;5063398;28;19931;-63
2022/01/29 01:15:28;;;;;;;;;;;;;;;1.30;60.30;97260.94;5063188;28;19924;-61
2022/01/29 01:17:54;;;;;;;;;;;;;;;1.30;59.44;97260.94;5066318;28;20077;-60
2022/01/29 01:20:21;;;;;;;;;;;;;;;1.21;61.46;97255.44;5067798;28;20430;-64
2022/01/29 01:22:47;;;;;;;;;;;;;;;1.14;61.04;97263.19;5067516;28;19924;-63
2022/01/29 01:25:14;;;;;;;;;;;;;;;1.00;62.24;97256.94;5066271;28;19924;-60
2022/01/29 01:27:40;;;;;;;;;;;;;;;0.98;62.42;97244.75;5066243;28;19935;-60
2022/01/29 01:30:07;;;;;;;;;;;;;;;0.89;61.21;97261.00;5067046;28;20372;-64
2022/01/29 01:32:35;;;;;;;;;;;;;;;0.88;62.00;97266.75;5067310;28;19947;-61
2022/01/29 01:35:11;;;;;;;;;;;;;;;0.81;61.45;97258.16;5067218;28;19924;-64
2022/01/29 01:37:48;;;;;;;;;;;;;;;0.86;61.92;97263.50;5066299;28;19924;-64
2022/01/29 01:40:16;;;;;;;;;;;;;;;0.82;63.13;97268.75;5067577;28;19924;-64
2022/01/29 01:42:43;;;;;;;;;;;;;;;0.83;61.61;97270.38;5067684;28;19931;-63
2022/01/29 01:45:10;;;;;;;;;;;;;;;0.76;61.79;97269.97;5065693;28;19931;-61
2022/01/29 01:47:36;;;;;;;;;;;;;;;0.84;60.89;97263.81;5067617;28;19950;-60
2022/01/29 01:50:03;;;;;;;;;;;;;;;0.89;61.54;97263.72;5067388;28;20315;-61
2022/01/29 01:52:30;;;;;;;;;;;;;;;0.80;61.32;97260.09;5065745;28;20409;-64
2022/01/29 01:54:56;;;;;;;;;;;;;;;0.88;61.00;97261.31;5067493;28;19943;-63
2022/01/29 01:57:23;;;;;;;;;;;;;;;0.82;62.41;97266.03;5067444;28;19993;-64
2022/01/29 01:59:50;;;;;;;;;;;;;;;0.75;61.45;97262.91;5065292;28;19924;-61
2022/01/29 02:02:16;;;;;;;;;;;;;;;0.76;62.19;97263.72;5065346;28;19928;-64
2022/01/29 02:04:43;;;;;;;;;;;;;;;0.75;63.36;97260.19;5067039;28;20203;-61
2022/01/29 02:07:10;;;;;;;;;;;;;;;0.66;62.99;97259.28;5066736;28;19925;-60
2022/01/29 02:09:38;;;;;;;;;;;;;;;0.62;63.33;97269.16;5053291;28;19928;-61
2022/01/29 02:12:05;;;;;;;;;;;;;;;0.58;62.68;97254.53;5045245;28;19924;-61
2022/01/29 02:14:33;;;;;;;;;;;;;;;0.66;62.67;97253.84;5046487;28;19925;-62
2022/01/29 02:17:01;;;;;;;;;;;;;;;0.62;63.16;97254.72;5046979;28;19924;-61
2022/01/29 02:19:27;;;;;;;;;;;;;;;0.59;62.73;97263.50;5046830;28;19947;-64
2022/01/29 02:21:54;;;;;;;;;;;;;;;0.48;62.83;97279.22;5046061;28;19931;-63
2022/01/29 02:24:21;;;;;;;;;;;;;;;0.33;63.15;97282.25;5046414;28;19925;-64
2022/01/29 02:26:48;;;;;;;;;;;;;;;0.03;65.94;97285.47;5046130;28;19932;-61
2022/01/29 02:29:15;;;;;;;;;;;;;;;-0.01;65.86;97281.72;5045806;28;19925;-61
2022/01/29 02:31:45;;;;;;;;;;;;;;;-0.03;66.70;97283.91;5045980;28;19924;-59
2022/01/29 02:34:12;;;;;;;;;;;;;;;0.01;67.10;97287.69;5046283;28;19925;-62
2022/01/29 02:36:41;;;;;;;;;;;;;;;0.04;66.49;97281.63;5045766;28;20400;-61
2022/01/29 02:39:09;;;;;;;;;;;;;;;-0.12;67.75;97291.16;5045971;28;19925;-64
2022/01/29 02:41:38;;;;;;;;;;;;;;;-0.20;67.90;97289.09;5044943;28;19925;-64
2022/01/29 02:44:06;;;;;;;;;;;;;;;-0.11;67.57;97287.31;5044574;28;19931;-62
2022/01/29 02:49:15;;;;;;;;;;;;;;;-0.17;68.09;97283.06;5045723;28;20506;-65
2022/01/29 02:51:46;;;;;;;;;;;;;;;-0.26;68.21;97279.38;5043918;28;20375;-64
2022/01/29 02:54:13;;;;;;;;;;;;;;;-0.26;69.23;97291.09;5045654;28;19931;-62
2022/01/29 02:56:39;;;;;;;;;;;;;;;-0.21;69.65;97287.47;5043975;28;19925;-64
2022/01/29 02:59:06;;;;;;;;;;;;;;;-0.09;68.65;97296.00;5045654;28;20293;-58
2022/01/29 03:01:32;;;;;;;;;;;;;;;-0.25;68.05;97291.88;5043926;28;20397;-60
2022/01/29 03:03:59;;;;;;;;;;;;;;;-0.23;68.79;97306.00;5046065;28;19939;-59
2022/01/29 03:06:26;;;;;;;;;;;;;;;-0.41;69.96;97304.91;5045392;28;20411;-63
2022/01/29 03:08:53;;;;;;;;;;;;;;;-0.51;69.80;97298.81;5050646;28;19931;-62
2022/01/29 03:11:19;;;;;;;;;;;;;;;-0.44;70.17;97304.69;5065177;28;19925;-60
2022/01/29 03:13:47;;;;;;;;;;;;;;;-0.46;70.64;97298.75;5064983;28;19924;-63
2022/01/29 03:16:13;;;;;;;;;;;;;;;-0.55;71.25;97293.13;5065260;28;19931;-60
2022/01/29 03:18:40;;;;;;;;;;;;;;;-0.55;70.60;97292.31;5063881;28;19924;-62
2022/01/29 03:21:07;;;;;;;;;;;;;;;-0.49;70.90;97291.19;5063564;28;19924;-62
2022/01/29 03:23:34;;;;;;;;;;;;;;;-0.57;71.20;97305.44;5065143;28;19954;-63
2022/01/29 03:26:01;;;;;;;;;;;;;;;-0.53;71.39;97293.66;5063160;28;19924;-63
2022/01/29 03:28:27;;;;;;;;;;;;;;;-0.51;71.30;97294.19;5065059;28;19935;-61
2022/01/29 03:30:55;;;;;;;;;;;;;;;-0.55;71.71;97292.31;5064806;28;19936;-59
2022/01/29 03:33:22;;;;;;;;;;;;;;;-0.66;71.07;97291.66;5064812;28;20023;-64
2022/01/29 03:35:49;;;;;;;;;;;;;;;-0.69;72.19;97291.44;5063343;28;19982;-63
2022/01/29 03:38:16;;;;;;;;;;;;;;;-0.67;71.12;97297.41;5063579;28;19931;-61
2022/01/29 03:40:45;;;;;;;;;;;;;;;-0.67;70.58;97297.41;5063815;28;19931;-60
2022/01/29 03:43:15;;;;;;;;;;;;;;;-0.69;71.27;97297.69;5064725;28;19925;-60
2022/01/29 03:45:41;;;;;;;;;;;;;;;-0.78;70.98;97298.63;5063195;28;20307;-63
2022/01/29 03:48:08;;;;;;;;;;;;;;;-0.73;71.07;97295.84;5064458;28;19928;-63
2022/01/29 03:50:35;;;;;;;;;;;;;;;-0.87;71.32;97311.25;5064762;28;20123;-63
2022/01/29 03:53:02;;;;;;;;;;;;;;;-0.81;72.42;97405.25;5063083;28;19924;-64
2022/01/29 03:55:28;;;;;;;;;;;;;;;-0.80;72.78;97307.09;5064917;28;19924;-61
2022/01/29 03:57:55;;;;;;;;;;;;;;;-0.89;72.99;97299.88;5065397;28;20394;-64
2022/01/29 04:00:22;;;;;;;;;;;;;;;-0.88;72.20;97304.19;5064424;28;19972;-63
2022/01/29 04:02:48;;;;;;;;;;;;;;;-0.88;72.07;97298.75;5065013;28;19935;-60
2022/01/29 04:05:15;;;;;;;;;;;;;;;-0.78;72.16;97298.63;5062814;28;19955;-60
2022/01/29 04:07:41;;;;;;;;;;;;;;;-1.06;73.90;97318.56;5064632;28;19928;-63
2022/01/29 04:10:08;;;;;;;;;;;;;;;-1.32;75.79;97325.34;5059268;28;19929;-60
2022/01/29 04:12:41;;;;;;;;;;;;;;;-1.18;75.07;97327.09;5044787;28;19943;-62
2022/01/29 04:15:08;;;;;;;;;;;;;;;-1.22;75.45;97325.25;5042829;28;20008;-60
2022/01/29 04:17:34;;;;;;;;;;;;;;;-1.23;75.46;97331.81;5044671;28;19925;-61
2022/01/29 04:20:02;;;;;;;;;;;;;;;-1.25;75.56;97320.41;5044235;28;19932;-60
2022/01/29 04:22:29;;;;;;;;;;;;;;;-1.27;75.72;97317.16;5042686;28;20387;-61
2022/01/29 04:24:55;;;;;;;;;;;;;;;-1.22;75.58;97319.81;5044207;28;19929;-61
2022/01/29 04:27:31;;;;;;;;;;;;;;;-1.21;74.86;97326.88;5044233;28;19942;-64
2022/01/29 04:30:01;;;;;;;;;;;;;;;-1.22;74.55;97325.25;5043032;28;19925;-62
2022/01/29 04:32:55;;;;;;;;;;;;;;;-1.45;74.68;97331.47;5044133;28;19937;-59
2022/01/29 04:35:14;;;;;;;;;;;;;;;-1.73;77.16;97336.63;5043450;28;19924;-60
2022/01/29 04:37:41;;;;;;;;;;;;;;;-1.60;76.53;97330.50;5044188;28;19931;-61
2022/01/29 04:40:08;;;;;;;;;;;;;;;-1.74;77.24;97340.41;5043696;28;19924;-61
2022/01/29 04:42:34;;;;;;;;;;;;;;;-1.64;77.06;97337.63;5043928;28;19925;-60
2022/01/29 04:45:01;;;;;;;;;;;;;;;-2.36;79.56;97353.91;5043872;28;19924;-59
2022/01/29 04:47:28;;;;;;;;;;;;;;;-2.14;79.93;97353.50;5043321;28;20338;-60
2022/01/29 04:49:54;;;;;;;;;;;;;;;-1.98;79.92;97350.41;5043971;28;20459;-59
2022/01/29 04:52:21;;;;;;;;;;;;;;;-1.99;79.42;97354.19;5045419;28;19931;-63
2022/01/29 04:54:47;;;;;;;;;;;;;;;-1.93;78.86;97363.91;5047933;28;19964;-62
2022/01/29 04:57:14;;;;;;;;;;;;;;;-1.86;79.19;97361.69;5048240;28;19924;-61
2022/01/29 04:59:41;;;;;;;;;;;;;;;-1.90;79.94;97363.34;5048135;28;19925;-63
2022/01/29 05:02:07;;;;;;;;;;;;;;;-1.79;79.43;97362.16;5048005;28;19924;-63
2022/01/29 05:04:34;;;;;;;;;;;;;;;-1.81;79.29;97358.13;5047894;28;20318;-67
2022/01/29 05:07:00;;;;;;;;;;;;;;;-1.96;79.04;97348.19;5047805;28;19924;-64
2022/01/29 05:09:27;;;;;;;;;;;;;;;-1.84;79.20;97356.81;5053895;28;19960;-61
2022/01/29 05:11:55;;;;;;;;;;;;;;;-1.69;78.50;97364.81;5047719;28;20218;-66
2022/01/29 05:27:36;;;;;;;;;;;;;;;-2.05;77.75;97377.03;5047528;28;19925;-60
2022/01/29 05:30:03;;;;;;;;;;;;;;;-2.18;79.66;97383.09;5045738;28;19971;-63
2022/01/29 05:32:30;;;;;;;;;;;;;;;-2.00;78.72;97379.72;5047105;28;20011;-64
2022/01/29 05:34:56;;;;;;;;;;;;;;;-1.88;78.74;97380.16;5047239;28;19924;-63
2022/01/29 05:37:39;;;;;;;;;;;;;;;-1.84;78.44;97383.94;5047612;28;19931;-63
2022/01/29 05:40:06;;;;;;;;;;;;;;;-2.28;80.05;97387.78;5047479;28;19925;-60
2022/01/29 05:42:33;;;;;;;;;;;;;;;-2.35;81.28;97388.06;5047089;28;19931;-64
2022/01/29 05:45:00;;;;;;;;;;;;;;;-2.24;81.15;97405.91;5046992;28;20403;-60
2022/01/29 05:47:26;;;;;;;;;;;;;;;-2.18;80.57;97412.94;5046806;28;19925;-59
2022/01/29 05:49:53;;;;;;;;;;;;;;;-2.02;79.64;97409.03;5045145;28;20027;-63
2022/01/29 05:52:19;;;;;;;;;;;;;;;-2.02;80.28;97419.88;5046888;28;19924;-62
2022/01/29 05:54:47;;;;;;;;;;;;;;;-1.94;80.74;97426.63;5045495;28;19975;-63
2022/01/29 05:57:14;;;;;;;;;;;;;;;-1.78;80.02;97420.00;5045315;28;20027;-63
2022/01/29 05:59:41;;;;;;;;;;;;;;;-1.80;79.43;97423.00;5045410;28;20043;-60
2022/01/29 06:02:07;;;;;;;;;;;;;;;-1.72;79.66;97425.13;5046553;28;19955;-63
2022/01/29 06:04:34;;;;;;;;;;;;;;;-1.60;80.09;97422.03;5045902;28;20023;-64
2022/01/29 06:07:00;;;;;;;;;;;;;;;-1.58;79.28;97423.38;5046952;28;20050;-62
2022/01/29 06:09:27;;;;;;;;;;;;;;;-1.43;78.96;97419.72;5057285;28;19931;-64
2022/01/29 06:11:53;;;;;;;;;;;;;;;-1.36;78.29;97427.56;5066720;28;19920;-61
2022/01/29 06:14:21;;;;;;;;;;;;;;;-1.32;77.59;97423.16;5066179;28;19946;-64
2022/01/29 06:16:47;;;;;;;;;;;;;;;-1.29;77.57;97438.88;5067302;28;20011;-59
2022/01/29 06:19:14;;;;;;;;;;;;;;;-1.18;76.73;97440.41;5066468;28;19960;-65
2022/01/29 06:21:40;;;;;;;;;;;;;;;-1.14;76.16;97441.47;5066649;28;19932;-60
2022/01/29 06:24:07;;;;;;;;;;;;;;;-1.08;75.94;97435.72;5064579;28;19930;-63
2022/01/29 06:26:34;;;;;;;;;;;;;;;-1.01;76.29;97446.25;5066432;28;20374;-61
2022/01/29 06:29:01;;;;;;;;;;;;;;;-1.01;75.66;97446.25;5066139;28;20669;-62
2022/01/29 06:31:28;;;;;;;;;;;;;;;-0.99;74.98;97446.75;5065919;28;19924;-61
2022/01/29 06:33:54;;;;;;;;;;;;;;;-0.86;74.88;97455.06;5064577;28;19934;-64
2022/01/29 06:36:21;;;;;;;;;;;;;;;-0.76;74.73;97465.03;5065906;28;19924;-63
2022/01/29 06:38:48;;;;;;;;;;;;;;;-0.65;75.11;97456.47;5065942;28;19931;-61
2022/01/29 06:41:14;;;;;;;;;;;;;;;-0.54;74.57;97451.72;5066309;28;19924;-64
2022/01/29 06:43:41;;;;;;;;;;;;;;;-0.60;73.89;97450.19;5064770;28;19924;-64
2022/01/29 06:46:07;;;;;;;;;;;;;;;-0.53;74.27;97458.78;5064675;28;20006;-64
2022/01/29 06:48:34;;;;;;;;;;;;;;;-0.46;73.45;97465.50;5066159;28;19924;-64
2022/01/29 06:51:01;;;;;;;;;;;;;;;-0.65;73.78;97470.06;5065746;28;20374;-60
2022/01/29 06:53:27;;;;;;;;;;;;;;;-0.42;73.69;97471.16;5065258;28;20501;-64
2022/01/29 06:55:54;;;;;;;;;;;;;;;-0.37;72.59;97476.56;5065513;28;19924;-61
2022/01/29 06:58:20;;;;;;;;;;;;;;;-0.24;72.59;97473.16;5064083;28;20282;-61
2022/01/29 07:01:07;;;;;;;;;;;;;;;-0.24;72.87;97471.22;5065083;28;19958;-62
2022/01/29 07:03:34;;;;;;;;;;;;;;;0.05;72.25;97471.13;5065836;28;20041;-64
2022/01/29 07:06:00;;;;;;;;;;;;;;;0.24;71.07;97474.66;5065350;28;19939;-60
2022/01/29 07:08:27;;;;;;;;;;;;;;;0.56;70.68;97468.47;5063214;28;19931;-63
2022/01/29 07:10:53;;;;;;;;;;;;;;;0.82;68.38;97464.25;5060431;28;19942;-62
2022/01/29 07:13:21;;;;;;;;;;;;;;;1.06;67.56;97476.66;5043749;28;19929;-61
2022/01/29 07:15:47;;;;;;;;;;;;;;;1.33;68.14;97476.72;5044742;28;19924;-63
2022/01/29 07:18:14;;;;;;;;;;;;;;;1.40;67.30;97468.13;5043610;28;19924;-63
2022/01/29 07:20:40;;;;;;;;;;;;;;;1.52;67.44;97457.53;5045226;28;19932;-64
2022/01/29 07:23:07;;;;;;;;;;;;;;;1.67;66.26;97459.16;5043521;28;19925;-65
2022/01/29 07:25:34;;;;;;;;;;;;;;;1.94;66.16;97472.81;5043742;28;19932;-64
2022/01/29 07:28:01;;;;;;;;;;;;;;;2.17;64.18;97474.50;5044832;28;20414;-65
2022/01/29 07:30:27;;;;;;;;;;;;;;;2.46;62.99;97462.09;5044573;28;19924;-63
2022/01/29 07:32:54;;;;;;;;;;;;;;;2.74;62.26;97462.81;5045053;28;19960;-62
2022/01/29 07:35:20;;;;;;;;;;;;;;;2.89;60.66;97465.97;5043209;28;19924;-65
2022/01/29 07:37:51;;;;;;;;;;;;;;;3.15;59.89;97468.91;5044762;28;19975;-63
2022/01/29 07:40:17;;;;;;;;;;;;;;;3.30;59.40;97470.44;5044854;28;19924;-61
2022/01/29 07:42:44;;;;;;;;;;;;;;;3.49;60.09;97474.59;5043400;28;20335;-63
2022/01/29 07:45:10;;;;;;;;;;;;;;;3.79;59.79;97473.78;5044842;28;19925;-61
2022/01/29 07:47:37;;;;;;;;;;;;;;;4.07;59.49;97475.16;5044981;28;19925;-64
2022/01/29 07:50:04;;;;;;;;;;;;;;;4.38;58.65;97473.13;5059867;28;19924;-64
2022/01/29 07:52:32;;;;;;;;;;;;;;;4.57;57.57;97468.16;5044949;28;19940;-65
2022/01/29 07:55:02;;;;;;;;;;;;;;;4.71;57.81;97472.69;5043601;28;19924;-62
2022/01/29 07:57:29;;;;;;;;;;;;;;;4.76;57.09;97469.78;5045145;28;19924;-63
2022/01/29 07:59:55;;;;;;;;;;;;;;;4.93;57.13;97475.28;5044835;28;19929;-65
2022/01/29 08:02:22;;;;;;;;;;;;;;;5.18;55.60;97463.47;5044957;28;19932;-64
2022/01/29 08:04:49;;;;;;;;;;;;;;;5.34;54.05;97465.34;5044626;28;20015;-61
2022/01/29 08:07:15;;;;;;;;;;;;;;;5.53;53.00;97473.25;5044499;28;19925;-61
2022/01/29 08:09:42;;;;;;;;;;;;;;;5.62;52.54;97468.53;5056194;28;19928;-65
2022/01/29 08:12:09;;;;;;;;;;;;;;;5.63;52.26;97470.13;5064508;28;19935;-61
2022/01/29 08:14:35;;;;;;;;;;;;;;;5.83;51.61;97466.72;5062854;28;20399;-65
2022/01/29 08:17:02;;;;;;;;;;;;;;;5.79;52.67;97482.22;5062680;28;19930;-64
2022/01/29 08:19:29;;;;;;;;;;;;;;;5.59;53.98;97482.91;5064579;28;19925;-61
2022/01/29 08:21:55;;;;;;;;;;;;;;;5.79;53.26;97487.69;5062949;28;19935;-61
2022/01/29 08:24:22;;;;;;;;;;;;;;;6.04;52.71;97484.88;5064187;28;19931;-60
2022/01/29 08:26:48;;;;;;;;;;;;;;;6.05;51.89;97485.69;5063473;28;20011;-66
2022/01/29 08:29:15;;;;;;;;;;;;;;;6.07;52.19;97484.22;5063064;28;19951;-62
2022/01/29 08:31:41;;;;;;;;;;;;;;;6.14;51.49;97489.22;5062665;28;20334;-61
2022/01/29 08:34:08;;;;;;;;;;;;;;;6.21;50.65;97495.03;5064048;28;19924;-63
2022/01/29 08:36:35;;;;;;;;;;;;;;;5.90;51.46;97489.00;5064070;28;19924;-62
2022/01/29 08:39:02;;;;;;;;;;;;;;;6.12;52.12;97491.47;5064177;28;20369;-62
2022/01/29 08:41:28;;;;;;;;;;;;;;;6.43;50.53;97483.72;5062437;28;19924;-59
2022/01/29 08:43:55;;;;;;;;;;;;;;;6.69;48.74;97495.38;5063973;28;20410;-63
2022/01/29 08:46:22;;;;;;;;;;;;;;;6.79;48.30;97486.72;5062866;28;20009;-60
2022/01/29 08:48:49;;;;;;;;;;;;;;;6.82;47.87;97494.31;5063839;28;20016;-63
2022/01/29 08:51:16;;;;;;;;;;;;;;;6.88;48.51;97498.47;5063749;28;19928;-62
2022/01/29 08:53:43;;;;;;;;;;;;;;;6.99;47.99;97499.69;5062427;28;19924;-62
2022/01/29 08:56:09;;;;;;;;;;;;;;;6.99;48.48;97499.69;5062245;28;19947;-59
2022/01/29 08:58:42;;;;;;;;;;;;;;;7.07;47.74;97498.81;5062888;28;19924;-59
2022/01/29 09:01:09;;;;;;;;;;;;;;;7.20;48.24;97503.25;5063761;28;20352;-59
2022/01/29 09:03:36;;;;;;;;;;;;;;;7.21;47.38;97507.59;5063855;28;19978;-61
2022/01/29 09:06:03;;;;;;;;;;;;;;;7.26;47.00;97510.16;5062150;28;19968;-59
2022/01/29 09:08:29;;;;;;;;;;;;;;;7.31;48.04;97518.22;5061828;28;19924;-60
2022/01/29 09:10:57;;;;;;;;;;;;;;;7.12;47.50;97517.91;5043454;28;20403;-59
2022/01/29 09:13:25;;;;;;;;;;;;;;;7.20;47.55;97522.53;5073949;28;19932;-63
2022/01/29 09:15:51;;;;;;;;;;;;;;;7.47;46.55;97516.44;5063171;28;19924;-59
2022/01/29 09:18:18;;;;;;;;;;;;;;;7.42;46.51;97513.09;5063930;28;20015;-63
2022/01/29 09:20:44;;;;;;;;;;;;;;;7.65;46.60;97519.81;5063770;28;20318;-60
2022/01/29 09:23:11;;;;;;;;;;;;;;;7.68;45.91;97510.91;5063211;28;19924;-64
2022/01/29 09:25:38;;;;;;;;;;;;;;;7.73;46.89;97511.47;5062909;28;19940;-62
2022/01/29 09:28:08;;;;;;;;;;;;;;;7.95;46.13;97509.47;5063203;28;19930;-60
2022/01/29 09:30:35;;;;;;;;;;;;;;;8.10;46.00;97512.38;5062331;28;19924;-60
2022/01/29 09:33:02;;;;;;;;;;;;;;;8.30;45.71;97505.19;5060156;28;19925;-59
2022/01/29 09:35:29;;;;;;;;;;;;;;;8.30;44.97;97507.94;5061059;28;19947;-63
2022/01/29 09:37:56;;;;;;;;;;;;;;;8.31;45.08;97506.78;5060657;28;19924;-62
2022/01/29 09:40:23;;;;;;;;;;;;;;;8.51;45.77;97511.38;5063659;28;19924;-63
2022/01/29 09:42:51;;;;;;;;;;;;;;;8.54;44.03;97510.69;5066097;28;19931;-62
2022/01/29 09:45:19;;;;;;;;;;;;;;;8.25;44.07;97519.19;5063921;28;19924;-63
2022/01/29 09:47:47;;;;;;;;;;;;;;;8.13;44.52;97517.19;5064030;28;20390;-60
2022/01/29 09:50:15;;;;;;;;;;;;;;;7.85;43.67;97518.16;5082463;28;19930;-62
2022/01/29 09:52:42;;;;;;;;;;;;;;;4.48;45.40;97107.25;5082542;28;20636;-61
2022/01/29 09:55:09;;;;;;;;;;;;;;;7.33;45.65;97510.41;5066847;28;20395;-62
2022/01/29 09:57:36;;;;;;;;;;;;;;;7.01;46.82;97500.16;5082319;28;19932;-58
2022/01/29 10:00:04;;;;;;;;;;;;;;;7.52;46.75;97518.97;5066766;28;20034;-64
2022/01/29 10:02:30;;;;;;;;;;;;;;;7.76;46.87;97507.25;5066305;28;19924;-62
2022/01/29 10:04:57;;;;;;;;;;;;;;;7.98;45.77;97509.59;5065422;28;19924;-58
2022/01/29 10:07:26;;;;;;;;;;;;;;;7.86;45.67;97501.28;5066454;28;20379;-61
2022/01/29 10:09:53;;;;;;;;;;;;;;;8.03;45.86;97505.81;5092832;28;19924;-61
2022/01/29 10:12:22;;;;;;;;;;;;;;;8.04;45.91;97501.88;5087065;28;19993;-62
2022/01/29 10:14:50;;;;;;;;;;;;;;;8.12;46.43;97492.69;5086609;28;19924;-61
2022/01/29 10:17:35;;;;;;;;;;;;;;;8.09;46.20;97509.94;5086972;28;19923;-59
2022/01/29 10:20:17;;;;;;;;;;;;;;;8.10;46.37;97495.00;5087104;28;20309;-59
2022/01/29 10:22:45;;;;;;;;;;;;;;;7.90;45.53;97501.41;5085187;28;19931;-64
2022/01/29 10:25:13;;;;;;;;;;;;;;;5.48;44.84;97113.53;5086272;28;20418;-61
2022/01/29 10:28:00;;;;;;;;;;;;;;;8.16;45.36;97490.84;5084913;28;20026;-60
2022/01/29 10:30:30;;;;;;;;;;;;;;;8.52;43.82;97490.91;5084916;28;20067;-59
2022/01/29 10:33:16;;;;;;;;;;;;;;;8.57;43.04;97490.66;5084904;28;20369;-61
2022/01/29 10:35:43;;;;;;;;;;;;;;;8.66;44.11;97491.34;5086221;28;19931;-62
2022/01/29 10:38:10;;;;;;;;;;;;;;;8.96;43.80;97489.94;5086477;28;20299;-60
2022/01/29 10:40:38;;;;;;;;;;;;;;;9.20;43.66;97495.38;5086553;28;19924;-59
2022/01/29 10:43:05;;;;;;;;;;;;;;;9.23;44.03;97491.13;5086149;28;19931;-58
2022/01/29 10:45:33;;;;;;;;;;;;;;;9.44;43.94;97495.28;5086470;28;19928;-62
2022/01/29 10:48:00;;;;;;;;;;;;;;;9.56;43.23;97484.19;5085036;28;19931;-63
2022/01/29 10:50:27;;;;;;;;;;;;;;;9.90;42.37;97482.72;5085433;28;19923;-59
2022/01/29 10:52:56;;;;;;;;;;;;;;;9.78;40.81;97489.16;5084389;28;19943;-59
2022/01/29 10:55:22;;;;;;;;;;;;;;;8.79;43.06;97498.47;5085900;28;19967;-58
2022/01/29 10:57:49;;;;;;;;;;;;;;;9.13;41.93;97495.19;5084500;28;19924;-62
2022/01/29 11:00:17;;;;;;;;;;;;;;;8.99;42.02;97483.69;5084196;28;19931;-59
2022/01/29 11:02:44;;;;;;;;;;;;;;;9.52;42.33;97491.56;5086086;28;19967;-62
2022/01/29 11:05:11;;;;;;;;;;;;;;;9.84;41.83;97484.97;5084480;28;19931;-59
2022/01/29 11:07:38;;;;;;;;;;;;;;;9.92;41.34;97484.00;5086198;28;19924;-62
2022/01/29 11:10:06;;;;;;;;;;;;;;;9.95;41.73;97486.03;5080820;28;19925;-59
2022/01/29 11:12:41;;;;;;;;;;;;;;;9.97;40.62;97486.50;5064179;28;20251;-59
2022/01/29 11:15:08;;;;;;;;;;;;;;;9.83;40.38;97480.56;5065135;28;19924;-63
2022/01/29 11:17:35;;;;;;;;;;;;;;;9.20;42.44;97478.78;5065192;28;20422;-62
2022/01/29 11:20:03;;;;;;;;;;;;;;;9.31;43.12;97479.91;5063965;28;19924;-60
2022/01/29 11:22:34;;;;;;;;;;;;;;;9.36;43.18;97482.41;5065333;28;19924;-64
2022/01/29 11:25:03;;;;;;;;;;;;;;;9.30;41.92;97489.34;5065728;28;20350;-62
2022/01/29 11:27:30;;;;;;;;;;;;;;;9.05;43.65;97498.88;5065187;28;19932;-64
2022/01/29 11:29:58;;;;;;;;;;;;;;;9.13;42.82;97492.41;5065493;28;19924;-61
2022/01/29 11:32:27;;;;;;;;;;;;;;;9.20;42.93;97495.38;5065272;28;19957;-63
2022/01/29 11:35:03;;;;;;;;;;;;;;;9.11;41.99;97486.41;5064889;28;19924;-60
2022/01/29 11:37:37;;;;;;;;;;;;;;;9.10;41.72;97485.59;5065265;28;19924;-64
2022/01/29 11:40:22;;;;;;;;;;;;;;;9.18;41.96;97478.34;5065397;28;19931;-59
2022/01/29 11:43:07;;;;;;;;;;;;;;;9.32;41.72;97480.72;5065183;28;20315;-61
2022/01/29 11:45:45;;;;;;;;;;;;;;;9.48;41.72;97481.56;5064785;28;19924;-65
2022/01/29 11:48:39;;;;;;;;;;;;;;;9.89;40.28;97479.16;5064614;28;19924;-65
2022/01/29 11:51:09;;;;;;;;;;;;;;;10.13;39.87;97479.00;5062251;28;19931;-61
2022/01/29 11:53:45;;;;;;;;;;;;;;;10.33;40.23;97480.72;5064289;28;20015;-61
2022/01/29 11:56:27;;;;;;;;;;;;;;;10.58;39.66;97479.38;5062729;28;19935;-62
2022/01/29 11:59:12;;;;;;;;;;;;;;;10.61;39.98;97475.88;5064919;28;19924;-63
2022/01/29 12:01:39;;;;;;;;;;;;;;;10.37;39.50;97467.75;5064509;28;19924;-63
2022/01/29 12:04:06;;;;;;;;;;;;;;;10.45;40.68;97458.47;5064706;28;20018;-59
2022/01/29 12:06:38;;;;;;;;;;;;;;;10.23;41.11;97467.41;5064205;28;19931;-63
2022/01/29 12:09:27;;;;;;;;;;;;;;;10.23;40.41;97463.84;5062766;28;19924;-62
2022/01/29 12:12:13;;;;;;;;;;;;;;;9.94;40.69;97470.56;5064533;28;19924;-63
2022/01/29 12:14:40;;;;;;;;;;;;;;;9.92;41.49;97467.38;5062139;28;19924;-62
2022/01/29 12:17:08;;;;;;;;;;;;;;;8.62;42.52;97468.34;5064488;28;19924;-63
2022/01/29 12:19:41;;;;;;;;;;;;;;;8.41;44.55;97467.69;5064594;28;19928;-60
2022/01/29 12:22:10;;;;;;;;;;;;;;;8.12;44.21;97474.19;5062746;28;19931;-59
2022/01/29 12:24:36;;;;;;;;;;;;;;;7.68;45.94;97478.59;5064522;28;19930;-59
2022/01/29 12:27:03;;;;;;;;;;;;;;;7.90;44.84;97473.81;5064344;28;19924;-60
2022/01/29 12:29:31;;;;;;;;;;;;;;;7.17;45.21;97473.63;5062609;28;19931;-59
2022/01/29 12:31:58;;;;;;;;;;;;;;;7.18;46.07;97469.72;5063661;28;20395;-62
2022/01/29 12:34:26;;;;;;;;;;;;;;;7.36;45.20;97470.34;5064065;28;20329;-63
2022/01/29 12:37:07;;;;;;;;;;;;;;;7.28;46.35;97474.81;5064033;28;19931;-61
2022/01/29 12:39:34;;;;;;;;;;;;;;;7.58;45.27;97473.53;5062705;28;19924;-61
2022/01/29 12:42:11;;;;;;;;;;;;;;;7.47;44.58;97477.88;5062719;28;19947;-61
2022/01/29 12:44:57;;;;;;;;;;;;;;;7.54;45.24;97472.59;5064189;28;20109;-62
2022/01/29 12:47:29;;;;;;;;;;;;;;;7.27;45.05;97481.44;5063804;28;19935;-63
2022/01/29 12:49:56;;;;;;;;;;;;;;;7.21;44.87;97480.03;5064318;28;19928;-64
2022/01/29 12:52:24;;;;;;;;;;;;;;;7.21;45.38;97473.72;5064043;28;19929;-62
2022/01/29 12:54:54;;;;;;;;;;;;;;;7.42;45.39;97475.31;5063889;28;20375;-63
2022/01/29 12:57:21;;;;;;;;;;;;;;;7.45;45.31;97485.66;5063815;28;20441;-60
2022/01/29 12:59:48;;;;;;;;;;;;;;;7.51;44.28;97470.50;5062928;28;19924;-61
2022/01/29 13:02:34;;;;;;;;;;;;;;;7.40;44.87;97480.34;5063635;28;19928;-61
2022/01/29 13:05:02;;;;;;;;;;;;;;;7.38;45.12;97473.59;5062059;28;20418;-63
2022/01/29 13:07:29;;;;;;;;;;;;;;;7.72;44.25;97470.44;5063932;28;19948;-61
2022/01/29 13:09:55;;;;;;;;;;;;;;;8.04;43.47;97463.25;5063956;28;19928;-61
2022/01/29 13:12:22;;;;;;;;;;;;;;;8.39;43.86;97467.22;5064566;28;19925;-64
2022/01/29 13:14:49;;;;;;;;;;;;;;;8.46;42.36;97464.66;5066278;28;19935;-62